Time;durP1;ratioP1;P1;durP2;ratioP2;P2;SDS_P1;SDS_P2;PMS_P1;PMS_P2;Temp;Humidity;BMP_temperature;BMP_pressure;BME280_temperature;BME280_humidity;BME280_pressure;Samples;Min_cycle;Max_cycle;Signal;HPM_P1;HPM_P2
2022/07/16 06:37:15;;;;;;;8.85;1.10;;;15.40;99.90;;;;;;6289666;22;20027;-83
2022/07/16 06:39:42;;;;;;;9.88;2.25;;;15.40;99.90;;;;;;6281905;22;20071;-83
2022/07/16 06:42:10;;;;;;;5.15;1.45;;;15.40;99.90;;;;;;6287400;22;20012;-85
2022/07/16 06:44:37;;;;;;;3.97;0.80;;;15.40;99.90;;;;;;6253916;22;20069;-88
2022/07/16 06:47:08;;;;;;;4.10;0.90;;;15.40;99.90;;;;;;6229240;22;20016;-88
2022/07/16 06:49:34;;;;;;;7.03;1.27;;;15.40;99.90;;;;;;6254525;22;20018;-83
2022/07/16 06:52:00;;;;;;;5.53;1.42;;;15.40;99.90;;;;;;6280182;22;20039;-87
2022/07/16 06:54:26;;;;;;;6.28;1.50;;;15.40;99.90;;;;;;6227738;22;20449;-86
2022/07/16 07:04:50;;;;;;;;;;;15.50;99.90;;;;;;6286772;22;20059;-85
2022/07/16 07:07:45;;;;;;;7.20;1.05;;;15.60;99.90;;;;;;6284457;22;19976;-86
2022/07/16 07:11:14;;;;;;;;;;;;;;;;;;;;;
2022/07/16 07:24:20;;;;;;;;;;;16.20;99.90;;;;;;6310786;22;20031;-87
2022/07/16 07:33:18;;;;;;;;;;;16.20;99.90;;;;;;6276110;22;20337;-85
2022/07/16 07:35:50;;;;;;;4.88;0.90;;;16.30;99.90;;;;;;6283435;22;19910;-83
2022/07/16 07:38:41;;;;;;;3.72;0.98;;;16.30;99.90;;;;;;6310124;22;20058;-85
2022/07/16 07:41:51;;;;;;;4.05;0.80;;;16.30;99.90;;;;;;6169967;22;20008;-86
2022/07/16 07:44:36;;;;;;;11.35;1.25;;;16.40;99.90;;;;;;6250759;22;20012;-84
2022/07/16 07:48:01;;;;;;;8.85;1.25;;;16.40;99.90;;;;;;6256211;22;20014;-83
2022/07/16 07:53:18;;;;;;;;;;;16.50;99.90;;;;;;6218801;23;20021;-85
2022/07/16 07:55:58;;;;;;;7.55;0.90;;;16.50;99.90;;;;;;6192649;23;20317;-85
2022/07/16 07:58:24;;;;;;;7.80;0.93;;;16.50;99.90;;;;;;6193702;23;20031;-83
2022/07/16 08:03:25;;;;;;;;;;;16.50;99.90;;;;;;6253133;22;20031;-85
2022/07/16 08:06:20;;;;;;;7.50;1.02;;;16.50;99.90;;;;;;6197630;22;19915;-85
2022/07/16 08:08:48;;;;;;;4.18;0.98;;;16.70;99.90;;;;;;6222558;23;20064;-84
2022/07/16 08:12:09;;;;;;;;;;;;;;;;;;;;;
2022/07/16 08:15:10;;;;;;;4.70;0.82;;;16.90;99.90;;;;;;6249632;22;20066;-83
2022/07/16 08:17:45;;;;;;;3.10;0.93;;;16.90;99.90;;;;;;6222892;23;20023;-87
2022/07/16 08:20:14;;;;;;;;;;;16.90;99.90;;;;;;6199169;23;20012;-87
2022/07/16 08:26:58;;;;;;;4.18;0.80;;;16.70;99.90;;;;;;6179535;23;20027;-86
2022/07/16 08:29:47;;;;;;;6.28;0.70;;;16.90;99.90;;;;;;6222124;23;20016;-87
2022/07/16 08:33:03;;;;;;;4.75;0.90;;;17.00;99.90;;;;;;6193519;23;20024;-86
2022/07/16 08:35:29;;;;;;;6.13;0.57;;;17.10;99.90;;;;;;6222161;23;20457;-82
2022/07/16 08:38:01;;;;;;;2.72;0.93;;;17.30;99.90;;;;;;6248107;23;20008;-84
2022/07/16 08:43:25;;;;;;;;;;;17.50;99.90;;;;;;6273920;22;20027;-86
2022/07/16 08:46:19;;;;;;;4.78;0.70;;;17.60;99.90;;;;;;6258181;22;19968;-83
2022/07/16 08:49:38;;;;;;;5.20;1.00;;;17.80;99.90;;;;;;6311322;22;20009;-87
2022/07/16 08:52:20;;;;;;;4.70;0.77;;;17.90;99.90;;;;;;6259252;22;20275;-85
2022/07/16 08:55:52;;;;;;;;;;;;;;;;;;;;;
2022/07/16 09:02:21;;;;;;;4.00;0.73;;;17.50;99.90;;;;;;6235250;22;20283;-89
2022/07/16 09:04:49;;;;;;;8.02;1.10;;;17.50;99.90;;;;;;6253249;22;20340;-85
2022/07/16 09:19:20;;;;;;;;;;;;;;;;;;;;;
2022/07/16 09:25:18;;;;;;;6.10;1.40;;;18.40;99.90;;;;;;6186227;23;20075;-84
2022/07/16 09:27:59;;;;;;;6.15;1.02;;;18.70;99.90;;;;;;6278705;22;20038;-86
2022/07/16 09:30:40;;;;;;;4.15;0.98;;;18.70;99.90;;;;;;6280591;22;20082;-87
2022/07/16 09:33:18;;;;;;;6.18;1.02;;;18.70;99.90;;;;;;6252723;22;20007;-91
2022/07/16 09:36:07;;;;;;;6.75;0.88;;;18.50;99.90;;;;;;6252453;22;20083;-86
2022/07/16 09:38:56;;;;;;;5.05;0.98;;;18.40;99.90;;;;;;6228663;22;20019;-89
2022/07/16 09:41:49;;;;;;;8.13;1.58;;;18.20;99.90;;;;;;6228339;22;20015;-89
2022/07/16 09:44:34;;;;;;;;;;;;;;;;;;;;;
2022/07/16 09:47:03;;;;;;;4.32;0.73;;;18.20;99.90;;;;;;6252140;22;20012;-90
2022/07/16 09:49:56;;;;;;;3.50;0.90;;;18.20;99.90;;;;;;6253235;22;20487;-90
2022/07/16 09:52:33;;;;;;;7.60;1.40;;;18.30;99.90;;;;;;6270052;22;20086;-79
2022/07/16 09:54:59;;;;;;;4.57;1.10;;;18.50;99.90;;;;;;6277826;22;20050;-85
2022/07/16 09:57:27;;;;;;;4.88;0.90;;;18.80;99.90;;;;;;6253048;22;20008;-87
2022/07/16 09:59:54;;;;;;;3.30;0.65;;;18.90;99.90;;;;;;6227169;22;20064;-89
2022/07/16 10:02:20;;;;;;;4.18;0.88;;;19.00;99.90;;;;;;6227388;22;20012;-88
2022/07/16 10:04:46;;;;;;;5.18;0.88;;;19.00;99.90;;;;;;6226734;22;20016;-86
2022/07/16 10:07:12;;;;;;;6.40;1.05;;;19.00;99.90;;;;;;6251520;22;20496;-87
2022/07/16 10:09:41;;;;;;;5.45;0.95;;;18.80;99.90;;;;;;6227004;22;20089;-87
2022/07/16 10:12:15;;;;;;;4.43;1.00;;;18.60;99.90;;;;;;6253070;22;20018;-87
2022/07/16 10:14:53;;;;;;;4.47;0.80;;;18.70;99.90;;;;;;6227649;22;20546;-87
2022/07/16 10:17:22;;;;;;;4.85;1.35;;;19.00;99.90;;;;;;6227803;22;20486;-87
2022/07/16 10:20:11;;;;;;;4.85;1.00;;;19.20;99.90;;;;;;6254321;22;20015;-87
2022/07/16 10:33:02;;;;;;;7.75;1.30;;;19.20;99.90;;;;;;6304949;22;20487;-86
2022/07/16 10:35:32;;;;;;;7.88;0.98;;;19.20;99.90;;;;;;6258026;22;20036;-87
2022/07/16 10:38:24;;;;;;;6.63;0.82;;;19.40;99.90;;;;;;6267820;22;20007;-86
2022/07/16 10:41:20;;;;;;;5.85;1.10;;;19.70;99.90;;;;;;6261445;22;20425;-87
2022/07/16 10:44:07;;;;;;;;;;;19.70;99.90;;;;;;6216972;22;20008;-87
2022/07/16 10:46:33;;;;;;;5.30;0.90;;;19.60;99.90;;;;;;6190892;23;19939;-85
2022/07/16 10:48:59;;;;;;;7.43;1.05;;;19.70;99.90;;;;;;6217603;23;20020;-89
2022/07/16 10:51:31;;;;;;;4.15;0.85;;;20.10;99.90;;;;;;6193371;23;20012;-88
2022/07/16 10:54:03;;;;;;;6.13;1.27;;;20.40;99.90;;;;;;6168053;23;20017;-88
2022/07/16 10:57:02;;;;;;;4.55;1.00;;;20.70;99.90;;;;;;6193536;23;20021;-91
2022/07/16 10:59:41;;;;;;;6.40;1.40;;;20.80;99.90;;;;;;6118046;23;20022;-84
2022/07/16 11:02:20;;;;;;;7.70;1.17;;;20.90;99.90;;;;;;6144626;23;20028;-84
2022/07/16 11:05:03;;;;;;;5.32;1.10;;;21.10;99.90;;;;;;6207749;23;20012;-87
2022/07/16 11:07:39;;;;;;;4.68;0.90;;;21.30;99.90;;;;;;6188979;23;19997;-86
2022/07/16 11:10:05;;;;;;;6.28;1.42;;;21.10;99.90;;;;;;6194724;22;20012;-84
2022/07/16 11:12:33;;;;;;;5.57;1.30;;;20.70;99.90;;;;;;6246467;22;20027;-84
2022/07/16 11:15:01;;;;;;;6.15;0.90;;;20.40;99.90;;;;;;6259877;22;20015;-83
2022/07/16 11:17:30;;;;;;;6.65;1.27;;;20.50;99.90;;;;;;6286201;22;20017;-87
2022/07/16 11:20:11;;;;;;;4.65;0.93;;;20.70;99.90;;;;;;6230371;22;20073;-86
2022/07/16 11:23:09;;;;;;;4.82;1.20;;;20.90;99.90;;;;;;6231930;22;20523;-87
2022/07/16 11:26:19;;;;;;;4.05;0.70;;;21.10;99.90;;;;;;6192359;23;20020;-86
2022/07/16 11:28:56;;;;;;;6.65;1.05;;;21.10;99.90;;;;;;6164399;23;20012;-88
2022/07/16 11:31:43;;;;;;;8.23;1.40;;;20.80;99.90;;;;;;6217107;23;20084;-87
2022/07/16 11:34:13;;;;;;;4.45;1.20;;;20.50;99.90;;;;;;6166423;23;20079;-87
2022/07/16 11:37:11;;;;;;;5.00;0.80;;;20.50;99.90;;;;;;6190276;23;20019;-85
2022/07/16 11:40:31;;;;;;;5.65;1.10;;;20.60;99.90;;;;;;6191902;23;20064;-89
2022/07/16 11:46:56;;;;;;;3.00;0.98;;;20.90;99.90;;;;;;6034897;23;20460;-86
2022/07/16 11:52:48;;;;;;;6.28;1.17;;;20.90;99.90;;;;;;6052625;23;20544;-88
2022/07/16 11:55:20;;;;;;;6.68;1.15;;;21.10;99.90;;;;;;6045261;23;20014;-87
2022/07/16 12:01:24;;;;;;;6.47;1.00;;;21.40;99.90;;;;;;6068802;23;20015;-83
2022/07/16 12:04:02;;;;;;;6.72;1.38;;;21.60;99.90;;;;;;6049580;23;20010;-81
2022/07/16 12:06:36;;;;;;;4.85;0.90;;;21.50;99.50;;;;;;6158780;23;20481;-84
2022/07/16 12:09:03;;;;;;;4.50;1.00;;;21.40;99.90;;;;;;6166417;23;20381;-85
2022/07/16 12:11:30;;;;;;;4.72;0.90;;;21.60;99.90;;;;;;6216105;23;20012;-82
2022/07/16 12:13:59;;;;;;;5.90;1.20;;;21.60;99.60;;;;;;6191078;23;20013;-87
2022/07/16 12:16:26;;;;;;;4.63;1.08;;;21.60;98.90;;;;;;6216885;23;20012;-87
2022/07/16 12:19:09;;;;;;;4.40;1.00;;;21.60;99.50;;;;;;6253321;22;20086;-88
2022/07/16 12:21:43;;;;;;;4.90;0.88;;;21.90;99.70;;;;;;6228013;22;20122;-88
2022/07/16 12:24:09;;;;;;;6.55;1.27;;;21.70;97.80;;;;;;6227437;22;20017;-87
2022/07/16 12:26:40;;;;;;;5.20;1.27;;;21.60;98.50;;;;;;6253400;22;20090;-87
2022/07/16 12:29:41;;;;;;;6.13;1.00;;;21.70;99.10;;;;;;6227748;22;20445;-87
2022/07/16 12:32:45;;;;;;;6.60;1.23;;;21.80;98.40;;;;;;6171693;22;20062;-88
2022/07/16 12:35:41;;;;;;;6.10;1.05;;;21.80;97.70;;;;;;6216109;23;20140;-85
2022/07/16 12:39:00;;;;;;;;;;;;;;;;;;;;;
2022/07/16 12:46:58;;;;;;;4.15;1.20;;;22.10;96.80;;;;;;6250631;22;20043;-91
2022/07/16 12:53:16;;;;;;;4.50;1.10;;;22.40;95.90;;;;;;6280166;22;20028;-89
2022/07/16 12:59:22;;;;;;;5.30;1.20;;;22.50;94.90;;;;;;6244264;22;20019;-91
2022/07/16 13:02:07;;;;;;;6.80;1.67;;;22.70;95.30;;;;;;6290079;22;20170;-88
2022/07/16 13:14:33;;;;;;;4.68;1.08;;;22.90;93.00;;;;;;6299858;22;20033;-90
2022/07/16 13:17:04;;;;;;;6.70;1.77;;;23.10;93.80;;;;;;6282769;22;20448;-89
2022/07/16 13:19:30;;;;;;;4.47;1.58;;;22.80;92.90;;;;;;6258654;22;20056;-90
2022/07/16 13:21:56;;;;;;;8.10;1.42;;;22.70;92.30;;;;;;6261600;22;20030;-88
2022/07/16 13:24:21;;;;;;;5.75;1.50;;;22.80;93.30;;;;;;6228592;22;20012;-91
2022/07/16 13:26:47;;;;;;;3.90;1.02;;;22.70;93.30;;;;;;6252858;22;20368;-90
2022/07/16 13:29:16;;;;;;;4.47;1.20;;;22.50;91.90;;;;;;6227621;22;20011;-90
2022/07/16 13:31:45;;;;;;;8.90;1.55;;;22.30;92.50;;;;;;6227811;22;20392;-88
2022/07/16 13:34:10;;;;;;;5.70;1.20;;;22.30;92.50;;;;;;6280298;22;20008;-87
2022/07/16 13:36:42;;;;;;;6.75;1.00;;;22.30;92.50;;;;;;6227104;22;20090;-87
2022/07/16 13:39:08;;;;;;;4.28;1.05;;;22.20;92.40;;;;;;6252256;22;20039;-85
2022/07/16 13:41:34;;;;;;;4.68;0.93;;;21.80;93.10;;;;;;6277484;22;20015;-81
2022/07/16 13:44:00;;;;;;;4.32;1.00;;;21.60;94.70;;;;;;6250672;22;20069;-84
2022/07/16 13:46:25;;;;;;;5.45;1.27;;;21.40;95.90;;;;;;6250928;22;20012;-83
2022/07/16 13:48:51;;;;;;;6.55;1.20;;;21.50;95.60;;;;;;6250936;22;20311;-89
2022/07/16 13:51:17;;;;;;;6.35;1.08;;;21.70;95.90;;;;;;6277809;22;20008;-86
2022/07/16 13:53:43;;;;;;;3.47;1.00;;;22.00;95.60;;;;;;6251299;22;20008;-84
2022/07/16 13:56:09;;;;;;;6.65;1.20;;;22.20;95.20;;;;;;6251141;22;20016;-86
2022/07/16 13:58:34;;;;;;;4.70;1.00;;;22.10;93.40;;;;;;6250944;22;20043;-85
2022/07/16 14:01:01;;;;;;;7.15;2.03;;;22.20;94.10;;;;;;6277465;22;20334;-86
2022/07/16 14:03:28;;;;;;;3.78;1.15;;;22.10;93.50;;;;;;6277848;22;20441;-83
2022/07/16 14:06:00;;;;;;;5.57;0.90;;;22.10;92.80;;;;;;6250825;22;20016;-86
2022/07/16 14:08:26;;;;;;;4.30;0.88;;;22.20;93.10;;;;;;6251222;22;20019;-87
2022/07/16 14:10:53;;;;;;;3.97;0.90;;;22.20;93.10;;;;;;6278338;22;20012;-84
2022/07/16 14:13:19;;;;;;;4.73;1.10;;;22.10;90.80;;;;;;6231857;22;1068767;-87
2022/07/16 14:15:45;;;;;;;5.22;1.00;;;22.10;90.50;;;;;;6228584;22;20023;-89
2022/07/16 14:18:12;;;;;;;2.78;0.90;;;22.10;90.70;;;;;;6254006;22;20090;-84
2022/07/16 14:20:40;;;;;;;3.97;0.93;;;22.10;91.20;;;;;;6254638;22;20039;-87
2022/07/16 14:23:54;;;;;;;6.53;1.10;;;22.30;92.30;;;;;;6257223;22;20019;-89
2022/07/16 14:26:25;;;;;;;4.97;1.10;;;22.40;92.80;;;;;;6122890;23;20166;-87
2022/07/16 14:36:30;;;;;;;3.90;1.10;;;22.40;90.70;;;;;;6072750;23;20021;-90
2022/07/16 14:59:19;;;;;;;3.85;1.08;;;22.70;85.60;;;;;;6300117;22;20076;-86
2022/07/16 15:01:48;;;;;;;4.05;0.85;;;22.50;82.10;;;;;;6239869;22;20098;-86
2022/07/16 15:04:17;;;;;;;3.85;0.90;;;22.40;82.20;;;;;;6255679;22;20063;-86
2022/07/16 15:06:43;;;;;;;7.10;1.25;;;22.50;83.80;;;;;;6281669;22;20043;-88
2022/07/16 15:09:19;;;;;;;5.10;0.80;;;22.50;83.70;;;;;;6234827;22;20022;-88
2022/07/16 15:11:54;;;;;;;6.00;1.15;;;22.60;85.20;;;;;;6255412;22;20075;-89
2022/07/16 15:14:19;;;;;;;6.82;1.52;;;22.70;86.30;;;;;;6231251;22;20035;-90
2022/07/16 15:17:36;;;;;;;;;;;;;;;;;;;;;
2022/07/16 15:21:25;;;;;;;4.90;1.20;;;22.80;85.80;;;;;;6173271;22;20014;-89
2022/07/16 15:24:11;;;;;;;4.60;0.88;;;22.50;86.60;;;;;;6250045;22;20023;-91
2022/07/16 15:27:42;;;;;;;6.63;1.40;;;22.30;88.10;;;;;;6254057;22;20023;-88
2022/07/16 15:31:09;;;;;;;5.15;1.10;;;22.20;90.00;;;;;;6175140;22;20008;-90
2022/07/16 15:48:46;;;;;;;10.90;2.28;;;22.30;90.70;;;;;;5202785;22;25556966;-88
2022/07/16 15:52:37;;;;;;;;;;;;;;;;;;;;;
2022/07/16 15:54:55;;;;;;;6.75;1.33;;;22.20;91.80;;;;;;6242178;22;20085;-86
2022/07/16 15:57:21;;;;;;;5.25;0.90;;;22.20;91.70;;;;;;6235437;22;20014;-91
2022/07/16 15:59:47;;;;;;;5.93;1.45;;;22.20;91.80;;;;;;6290725;22;20012;-90
2022/07/16 16:02:12;;;;;;;6.65;1.75;;;22.00;92.30;;;;;;6237556;22;19995;-91
2022/07/16 16:04:40;;;;;;;3.38;1.02;;;22.10;93.80;;;;;;6237408;22;20012;-87
2022/07/16 16:07:06;;;;;;;5.40;1.27;;;22.20;94.30;;;;;;6290773;22;20034;-89
2022/07/16 16:09:32;;;;;;;4.80;1.10;;;22.30;93.60;;;;;;6289824;22;20448;-87
2022/07/16 16:11:58;;;;;;;6.75;1.30;;;22.30;93.10;;;;;;6263325;22;20049;-87
2022/07/16 16:14:39;;;;;;;4.00;1.10;;;22.30;93.30;;;;;;6266901;22;20012;-90
2022/07/16 16:17:05;;;;;;;7.68;1.35;;;22.20;91.90;;;;;;6247437;22;20046;-89
2022/07/16 16:19:31;;;;;;;7.20;1.30;;;22.00;92.90;;;;;;6274025;22;20012;-89
2022/07/16 16:21:56;;;;;;;4.28;1.10;;;21.70;93.40;;;;;;6273186;22;20012;-90
2022/07/16 16:24:22;;;;;;;6.10;1.45;;;21.80;94.30;;;;;;6271932;22;20011;-86
2022/07/16 16:26:48;;;;;;;6.38;0.95;;;21.80;94.50;;;;;;6238607;22;20020;-85
2022/07/16 16:29:14;;;;;;;6.97;1.00;;;21.90;94.90;;;;;;6263857;22;20022;-88
2022/07/16 16:31:40;;;;;;;5.43;1.00;;;22.00;96.00;;;;;;6261580;22;20011;-90
2022/07/16 16:34:06;;;;;;;4.43;0.95;;;22.20;95.20;;;;;;6289930;22;20036;-81
2022/07/16 16:39:56;;;;;;;3.95;0.80;;;22.10;94.50;;;;;;6290572;22;20018;-88
2022/07/16 16:42:22;;;;;;;6.43;1.42;;;22.00;95.10;;;;;;6238535;22;20015;-90
2022/07/16 16:44:48;;;;;;;5.22;1.00;;;22.00;95.60;;;;;;6263125;22;20337;-88
2022/07/16 16:47:24;;;;;;;5.80;0.93;;;22.10;95.70;;;;;;6237308;22;20023;-90
2022/07/16 16:49:49;;;;;;;7.18;1.60;;;22.10;94.50;;;;;;6231203;22;20047;-89
2022/07/16 16:52:18;;;;;;;4.53;1.00;;;21.90;93.60;;;;;;6284550;22;20069;-90
2022/07/16 16:54:44;;;;;;;5.68;1.10;;;21.60;92.90;;;;;;6256908;22;20031;-85
2022/07/16 16:57:09;;;;;;;4.57;0.98;;;21.60;93.30;;;;;;6283523;22;20033;-89
2022/07/16 16:59:35;;;;;;;7.15;1.08;;;21.50;94.10;;;;;;6231416;22;20023;-90
2022/07/16 17:02:01;;;;;;;3.75;1.30;;;21.60;94.30;;;;;;6284170;22;20079;-90
2022/07/16 17:04:30;;;;;;;6.40;0.90;;;21.60;93.60;;;;;;6230043;22;20080;-84
2022/07/16 17:06:57;;;;;;;4.00;1.10;;;21.50;93.90;;;;;;6256400;22;20015;-90
2022/07/16 17:09:24;;;;;;;5.88;0.90;;;21.60;94.00;;;;;;6256358;22;20426;-88
2022/07/16 17:11:50;;;;;;;5.70;0.90;;;21.60;94.50;;;;;;6229030;22;20022;-83
2022/07/16 17:14:16;;;;;;;4.28;0.70;;;21.60;94.60;;;;;;6285020;22;20031;-88
2022/07/16 17:16:42;;;;;;;7.32;1.00;;;21.50;94.10;;;;;;6256974;22;20429;-90
2022/07/16 17:19:08;;;;;;;5.28;0.82;;;21.40;94.60;;;;;;6230599;22;20012;-88
2022/07/16 17:21:34;;;;;;;5.80;1.10;;;21.30;94.50;;;;;;6230750;22;20011;-89
2022/07/16 17:23:59;;;;;;;6.07;1.10;;;21.40;94.70;;;;;;6231436;22;20035;-87
2022/07/16 17:26:25;;;;;;;4.75;1.00;;;21.30;94.70;;;;;;6230939;22;20341;-90
2022/07/16 17:28:51;;;;;;;5.18;0.88;;;21.20;94.50;;;;;;6256556;22;20049;-89
2022/07/16 17:32:04;;;;;;;4.82;0.80;;;21.10;94.50;;;;;;6255489;22;20012;-91
2022/07/16 17:34:29;;;;;;;4.05;0.70;;;20.80;95.10;;;;;;6186777;22;20019;-90
2022/07/16 17:37:27;;;;;;;4.03;0.65;;;20.60;95.70;;;;;;6232558;22;20091;-93
2022/07/16 17:39:52;;;;;;;3.72;1.23;;;20.60;97.10;;;;;;6232444;22;20043;-91
2022/07/16 17:42:18;;;;;;;4.65;1.83;;;20.50;97.40;;;;;;6231437;22;20026;-89
2022/07/16 17:44:44;;;;;;;4.25;1.30;;;20.60;98.30;;;;;;6232180;22;20024;-90
2022/07/16 17:47:10;;;;;;;3.40;1.00;;;20.60;98.40;;;;;;6232665;22;20054;-90
2022/07/16 17:52:31;;;;;;;3.15;0.60;;;20.50;97.90;;;;;;6282917;22;20021;-92
2022/07/16 17:55:15;;;;;;;3.40;1.00;;;20.50;98.30;;;;;;6287881;22;20440;-91
2022/07/16 17:57:51;;;;;;;6.63;0.93;;;20.40;99.50;;;;;;6261190;22;20019;-92
2022/07/16 18:00:45;;;;;;;5.30;0.80;;;20.40;99.10;;;;;;6262535;22;20006;-90
2022/07/16 18:03:24;;;;;;;;;;;;;;;;;;;;;
2022/07/16 18:06:03;;;;;;;5.10;1.10;;;20.40;99.80;;;;;;6288924;22;20015;-92
2022/07/16 18:08:48;;;;;;;5.38;1.00;;;20.30;99.90;;;;;;6262486;22;20015;-92
2022/07/16 18:11:14;;;;;;;4.80;1.10;;;20.30;99.90;;;;;;6259648;22;20011;-90
2022/07/16 18:13:45;;;;;;;3.10;0.88;;;20.30;99.90;;;;;;6261247;22;20328;-91
2022/07/16 18:16:11;;;;;;;6.30;1.25;;;20.20;99.90;;;;;;6262018;22;20002;-92
2022/07/16 18:18:39;;;;;;;4.57;0.93;;;20.20;99.90;;;;;;6262072;22;20011;-89
2022/07/16 18:21:13;;;;;;;5.20;0.70;;;20.10;99.90;;;;;;6262566;22;20472;-90
2022/07/16 18:23:39;;;;;;;6.13;0.75;;;20.10;99.90;;;;;;6287636;22;20049;-91
2022/07/16 18:26:05;;;;;;;3.88;0.90;;;20.00;99.90;;;;;;6261094;22;20011;-90
2022/07/16 18:31:58;;;;;;;6.60;1.08;;;19.80;99.90;;;;;;6220750;22;20023;-91
2022/07/16 18:35:32;;;;;;;5.13;0.80;;;19.70;99.90;;;;;;6262507;22;20310;-94
2022/07/16 18:38:03;;;;;;;4.97;0.93;;;19.50;99.90;;;;;;6283411;22;20094;-91
2022/07/16 18:40:38;;;;;;;4.60;1.05;;;19.40;99.90;;;;;;6262956;22;20046;-91
2022/07/16 18:43:04;;;;;;;5.28;1.38;;;19.30;99.90;;;;;;6262726;22;20015;-90
2022/07/16 18:45:30;;;;;;;4.18;0.90;;;19.10;99.90;;;;;;6289135;22;20038;-89
2022/07/16 18:47:56;;;;;;;3.22;0.80;;;19.00;99.90;;;;;;6314606;22;20011;-90
2022/07/16 18:50:34;;;;;;;6.25;0.82;;;18.90;99.90;;;;;;6262650;22;20023;-90
2022/07/16 18:53:15;;;;;;;6.60;0.93;;;18.80;99.90;;;;;;6288429;22;20081;-91
2022/07/16 18:55:41;;;;;;;5.05;1.00;;;18.70;99.90;;;;;;6261965;22;20024;-91
2022/07/16 18:58:08;;;;;;;5.15;1.00;;;18.60;99.90;;;;;;6263306;22;20026;-90
2022/07/16 19:00:35;;;;;;;6.40;1.02;;;18.60;99.90;;;;;;6288662;22;20015;-90
2022/07/16 19:03:04;;;;;;;5.90;0.77;;;18.50;99.90;;;;;;6264287;22;20013;-91
2022/07/16 19:05:40;;;;;;;6.00;1.48;;;18.50;99.90;;;;;;6264243;22;19999;-89
2022/07/16 19:08:06;;;;;;;5.10;1.20;;;18.50;99.90;;;;;;6263948;22;20018;-90
2022/07/16 19:10:33;;;;;;;4.78;0.80;;;18.40;99.90;;;;;;6315398;22;20060;-91
2022/07/16 19:13:02;;;;;;;5.05;1.05;;;18.30;99.90;;;;;;6288562;22;20007;-90
2022/07/16 19:15:29;;;;;;;7.25;0.90;;;18.30;99.90;;;;;;6276175;22;20049;-88
2022/07/16 19:17:55;;;;;;;5.40;0.90;;;18.10;99.90;;;;;;6280903;22;20087;-90
2022/07/16 19:20:21;;;;;;;5.25;0.80;;;18.10;99.90;;;;;;6331355;22;20511;-91
2022/07/16 19:22:47;;;;;;;4.25;0.95;;;18.10;99.90;;;;;;6280516;22;19999;-89
2022/07/16 19:25:14;;;;;;;4.00;1.00;;;18.00;99.90;;;;;;6308648;22;20018;-89
2022/07/16 19:27:40;;;;;;;4.32;0.95;;;18.00;99.90;;;;;;6282856;22;20022;-91
2022/07/16 19:30:07;;;;;;;6.32;1.00;;;17.90;99.90;;;;;;6299034;22;20026;-89
2022/07/16 19:32:33;;;;;;;4.03;0.80;;;17.90;99.90;;;;;;6290662;22;20018;-90
2022/07/16 19:34:59;;;;;;;5.65;1.20;;;17.80;99.90;;;;;;6289547;22;20065;-90
2022/07/16 19:37:38;;;;;;;;;;;;;;;;;;;;;
2022/07/16 19:40:30;;;;;;;5.15;1.00;;;17.70;99.90;;;;;;6289024;22;20016;-93
2022/07/16 19:42:56;;;;;;;7.07;1.00;;;17.50;99.90;;;;;;6260142;22;20018;-90
2022/07/16 19:45:22;;;;;;;7.07;0.90;;;17.40;99.90;;;;;;6289733;22;20011;-89
2022/07/16 19:47:48;;;;;;;6.38;1.05;;;17.40;99.90;;;;;;6264007;22;20053;-90
2022/07/16 19:50:13;;;;;;;3.92;0.90;;;17.30;99.90;;;;;;6262539;22;20015;-89
2022/07/16 19:52:39;;;;;;;5.72;0.90;;;17.30;99.90;;;;;;6261125;22;20021;-90
2022/07/16 19:58:01;;;;;;;4.78;1.00;;;17.20;99.90;;;;;;6286706;22;20016;-89
2022/07/16 20:00:28;;;;;;;4.35;0.90;;;17.10;99.90;;;;;;6314541;22;20102;-88
2022/07/16 20:02:54;;;;;;;6.32;1.05;;;17.00;99.90;;;;;;6261793;22;20045;-89
2022/07/16 20:05:19;;;;;;;8.15;1.67;;;17.00;99.90;;;;;;6286373;22;20046;-89
2022/07/16 20:07:45;;;;;;;6.72;2.20;;;16.90;99.90;;;;;;6285369;22;20072;-86
2022/07/16 20:10:10;;;;;;;5.50;2.40;;;16.90;99.90;;;;;;6313024;22;20444;-88
2022/07/16 20:12:36;;;;;;;7.20;2.63;;;16.80;99.90;;;;;;6312411;22;20007;-86
2022/07/16 20:15:02;;;;;;;9.65;2.70;;;16.80;99.90;;;;;;6313700;22;20015;-88
2022/07/16 20:17:28;;;;;;;9.18;2.80;;;16.80;99.90;;;;;;6259772;22;20090;-88
2022/07/16 20:19:54;;;;;;;6.53;2.88;;;16.80;99.90;;;;;;6285629;22;20011;-89
2022/07/16 20:22:20;;;;;;;9.95;2.90;;;16.80;99.90;;;;;;6261274;22;20050;-85
2022/07/16 20:24:46;;;;;;;8.20;2.05;;;16.80;99.90;;;;;;6259999;22;20092;-87
2022/07/16 20:27:11;;;;;;;10.93;1.98;;;16.70;99.90;;;;;;6283527;22;20031;-83
2022/07/16 20:29:37;;;;;;;6.20;1.70;;;16.70;99.90;;;;;;6284465;22;20022;-86
2022/07/16 20:32:03;;;;;;;6.95;1.80;;;16.60;99.90;;;;;;6310872;22;20055;-87
2022/07/16 20:34:29;;;;;;;5.53;1.40;;;16.50;99.90;;;;;;6258231;22;20015;-84
2022/07/16 20:36:55;;;;;;;6.75;1.48;;;16.50;99.90;;;;;;6310630;22;20064;-83
2022/07/16 20:39:21;;;;;;;5.07;1.30;;;16.50;99.90;;;;;;6308521;22;20101;-83
2022/07/16 20:41:47;;;;;;;5.10;1.27;;;16.50;99.90;;;;;;6282608;22;20011;-84
2022/07/16 20:44:13;;;;;;;4.00;1.27;;;16.40;99.90;;;;;;6311754;22;20313;-85
2022/07/16 20:46:39;;;;;;;9.07;1.55;;;16.40;99.90;;;;;;6310004;22;20444;-84
2022/07/16 20:49:05;;;;;;;7.20;1.23;;;16.30;99.90;;;;;;6257227;22;20022;-84
2022/07/16 20:51:31;;;;;;;5.88;1.20;;;16.30;99.90;;;;;;6282502;22;20018;-84
2022/07/16 20:53:56;;;;;;;8.32;1.42;;;16.30;99.90;;;;;;6283299;22;20019;-86
2022/07/16 20:56:22;;;;;;;6.68;1.48;;;16.30;99.90;;;;;;6282710;22;20076;-85
2022/07/16 20:58:47;;;;;;;4.85;1.50;;;16.20;99.90;;;;;;6311066;22;20004;-85
2022/07/16 21:01:13;;;;;;;7.32;1.65;;;16.20;99.90;;;;;;6310028;22;20011;-83
2022/07/16 21:03:39;;;;;;;9.05;1.45;;;16.10;99.90;;;;;;6282451;22;20106;-85
2022/07/16 21:06:05;;;;;;;5.07;1.63;;;16.10;99.90;;;;;;6282607;22;20007;-82
2022/07/16 21:08:30;;;;;;;6.63;1.50;;;16.00;99.90;;;;;;6282394;22;20060;-84
2022/07/16 21:10:56;;;;;;;7.35;1.27;;;15.90;99.90;;;;;;6281992;22;20436;-83
2022/07/16 21:13:23;;;;;;;8.07;1.77;;;15.80;99.90;;;;;;6282393;22;20448;-83
2022/07/16 21:15:49;;;;;;;5.35;1.63;;;15.80;99.90;;;;;;6282132;22;20022;-84
2022/07/16 21:18:15;;;;;;;7.47;1.42;;;15.60;99.90;;;;;;6310796;22;20012;-85
2022/07/16 21:20:42;;;;;;;5.35;1.30;;;15.50;99.90;;;;;;6283227;22;20019;-85
2022/07/16 21:23:08;;;;;;;11.18;1.83;;;15.40;99.90;;;;;;6283440;22;20496;-84
2022/07/16 21:25:34;;;;;;;4.35;1.52;;;15.40;99.90;;;;;;6283494;22;20011;-85
2022/07/16 21:28:00;;;;;;;5.88;1.63;;;15.40;99.90;;;;;;6284004;22;20022;-85
2022/07/16 21:30:25;;;;;;;7.45;1.70;;;15.30;99.90;;;;;;6283791;22;20057;-83
2022/07/16 21:32:51;;;;;;;4.80;1.20;;;15.30;99.90;;;;;;6311390;22;20014;-83
2022/07/16 21:35:17;;;;;;;5.85;1.33;;;15.20;99.90;;;;;;6284315;22;20011;-86
2022/07/16 21:37:42;;;;;;;6.90;1.42;;;15.20;99.90;;;;;;6283951;22;20441;-85
2022/07/16 21:40:08;;;;;;;7.82;1.33;;;15.20;99.90;;;;;;6258497;22;20091;-86
2022/07/16 21:42:34;;;;;;;5.05;1.42;;;15.10;99.90;;;;;;6310961;22;20007;-85
2022/07/16 21:45:00;;;;;;;5.38;1.73;;;15.10;99.90;;;;;;6311432;22;20033;-84
2022/07/16 21:47:25;;;;;;;6.40;1.45;;;15.10;99.90;;;;;;6310597;22;20121;-84
2022/07/16 21:49:51;;;;;;;8.13;2.13;;;15.00;99.90;;;;;;6283710;22;20060;-82
2022/07/16 21:52:17;;;;;;;8.20;1.75;;;15.00;99.90;;;;;;6283594;22;20387;-83
2022/07/16 21:54:42;;;;;;;6.40;1.45;;;15.00;99.90;;;;;;6281437;22;20015;-85
2022/07/16 21:57:08;;;;;;;12.65;2.30;;;15.00;99.90;;;;;;6282405;22;20068;-85
2022/07/16 21:59:33;;;;;;;9.68;2.50;;;14.90;99.90;;;;;;6283754;22;20345;-86
2022/07/16 22:01:59;;;;;;;8.48;1.90;;;14.90;99.90;;;;;;6282261;22;20015;-85
2022/07/16 22:04:25;;;;;;;6.97;1.80;;;14.90;99.90;;;;;;6309287;22;20007;-84
2022/07/16 22:06:50;;;;;;;5.95;1.70;;;14.80;99.90;;;;;;6281232;22;20045;-85
2022/07/16 22:09:16;;;;;;;6.03;1.52;;;14.80;99.90;;;;;;6309930;22;20018;-83
2022/07/16 22:11:42;;;;;;;6.25;1.60;;;14.80;99.90;;;;;;6310691;22;20022;-83
2022/07/16 22:14:08;;;;;;;7.53;2.00;;;14.80;99.90;;;;;;6281938;22;20069;-83
2022/07/16 22:16:33;;;;;;;11.43;3.13;;;14.80;99.90;;;;;;6282230;22;20088;-85
2022/07/16 22:21:43;;;;;;;12.15;3.08;;;14.60;99.90;;;;;;6281432;22;20018;-83
2022/07/16 22:24:10;;;;;;;14.40;4.55;;;14.60;99.90;;;;;;6281828;22;20015;-85
2022/07/16 22:26:36;;;;;;;13.05;5.50;;;14.60;99.90;;;;;;6281420;22;20447;-83
2022/07/16 22:29:02;;;;;;;10.25;4.85;;;14.60;99.90;;;;;;6309359;22;20082;-85
2022/07/16 22:31:27;;;;;;;9.45;4.18;;;14.60;99.90;;;;;;6255780;22;20094;-84
2022/07/16 22:33:53;;;;;;;6.30;2.33;;;14.60;99.90;;;;;;6281262;22;20373;-87
2022/07/16 22:36:19;;;;;;;8.65;2.50;;;14.50;99.90;;;;;;6255661;22;20069;-85
2022/07/16 22:38:44;;;;;;;7.25;2.50;;;14.40;99.90;;;;;;6281324;22;20085;-82
2022/07/16 22:41:10;;;;;;;6.15;2.70;;;14.40;99.90;;;;;;6281932;22;20007;-82
2022/07/16 22:43:35;;;;;;;8.63;2.40;;;14.40;99.90;;;;;;6308687;22;20125;-85
2022/07/16 22:46:01;;;;;;;9.50;2.10;;;14.30;99.90;;;;;;6281187;22;20090;-84
2022/07/16 22:48:27;;;;;;;6.82;2.00;;;14.30;99.90;;;;;;6308819;22;20033;-84